sensor_id;sensor_type;location;lat;lon;timestamp;P1;durP1;ratioP1;P2;durP2;ratioP2
29214;SDS011;16252;49.816;7.964;2023-03-23T00:00:50;0.82;;;0.65;;
29214;SDS011;16252;49.816;7.964;2023-03-23T00:03:16;0.60;;;0.60;;
29214;SDS011;16252;49.816;7.964;2023-03-23T00:05:42;0.70;;;0.70;;
29214;SDS011;16252;49.816;7.964;2023-03-23T00:08:14;0.90;;;0.80;;
29214;SDS011;16252;49.816;7.964;2023-03-23T00:10:40;0.65;;;0.60;;
29214;SDS011;16252;49.816;7.964;2023-03-23T00:13:06;1.27;;;0.88;;
29214;SDS011;16252;49.816;7.964;2023-03-23T00:15:31;1.05;;;0.90;;
29214;SDS011;16252;49.816;7.964;2023-03-23T00:17:58;0.68;;;0.65;;
29214;SDS011;16252;49.816;7.964;2023-03-23T00:20:28;0.73;;;0.70;;
29214;SDS011;16252;49.816;7.964;2023-03-23T00:23:06;1.10;;;0.70;;
29214;SDS011;16252;49.816;7.964;2023-03-23T00:25:32;1.00;;;0.90;;
29214;SDS011;16252;49.816;7.964;2023-03-23T00:27:58;0.73;;;0.63;;
29214;SDS011;16252;49.816;7.964;2023-03-23T00:30:23;0.70;;;0.68;;
29214;SDS011;16252;49.816;7.964;2023-03-23T00:32:48;1.08;;;0.60;;
29214;SDS011;16252;49.816;7.964;2023-03-23T00:35:15;1.10;;;0.70;;
29214;SDS011;16252;49.816;7.964;2023-03-23T00:37:42;0.85;;;0.70;;
29214;SDS011;16252;49.816;7.964;2023-03-23T00:40:08;1.23;;;0.70;;
29214;SDS011;16252;49.816;7.964;2023-03-23T00:42:35;1.13;;;0.75;;
29214;SDS011;16252;49.816;7.964;2023-03-23T00:45:02;0.85;;;0.75;;
29214;SDS011;16252;49.816;7.964;2023-03-23T00:47:29;1.98;;;0.90;;
29214;SDS011;16252;49.816;7.964;2023-03-23T00:49:55;1.38;;;0.70;;
29214;SDS011;16252;49.816;7.964;2023-03-23T00:52:21;1.35;;;0.93;;
29214;SDS011;16252;49.816;7.964;2023-03-23T00:54:47;0.80;;;0.70;;
29214;SDS011;16252;49.816;7.964;2023-03-23T00:57:12;0.85;;;0.80;;
29214;SDS011;16252;49.816;7.964;2023-03-23T00:59:37;1.00;;;0.90;;
29214;SDS011;16252;49.816;7.964;2023-03-23T01:02:03;0.82;;;0.70;;
29214;SDS011;16252;49.816;7.964;2023-03-23T01:04:28;2.10;;;0.93;;
29214;SDS011;16252;49.816;7.964;2023-03-23T01:06:56;1.13;;;0.80;;
29214;SDS011;16252;49.816;7.964;2023-03-23T01:09:22;1.52;;;0.90;;
29214;SDS011;16252;49.816;7.964;2023-03-23T01:11:48;1.15;;;0.68;;
29214;SDS011;16252;49.816;7.964;2023-03-23T01:14:16;0.80;;;0.70;;
29214;SDS011;16252;49.816;7.964;2023-03-23T01:16:43;1.63;;;1.00;;
29214;SDS011;16252;49.816;7.964;2023-03-23T01:19:08;3.25;;;0.82;;
29214;SDS011;16252;49.816;7.964;2023-03-23T01:21:35;1.23;;;1.02;;
29214;SDS011;16252;49.816;7.964;2023-03-23T01:24:00;1.17;;;0.63;;
29214;SDS011;16252;49.816;7.964;2023-03-23T01:26:26;1.02;;;0.82;;
29214;SDS011;16252;49.816;7.964;2023-03-23T01:28:52;1.15;;;0.90;;
29214;SDS011;16252;49.816;7.964;2023-03-23T01:31:19;0.95;;;0.80;;
29214;SDS011;16252;49.816;7.964;2023-03-23T01:33:50;1.10;;;0.90;;
29214;SDS011;16252;49.816;7.964;2023-03-23T01:36:17;1.23;;;0.80;;
29214;SDS011;16252;49.816;7.964;2023-03-23T01:38:45;1.25;;;0.82;;
29214;SDS011;16252;49.816;7.964;2023-03-23T01:41:14;0.75;;;0.70;;
29214;SDS011;16252;49.816;7.964;2023-03-23T01:43:57;1.02;;;0.93;;
29214;SDS011;16252;49.816;7.964;2023-03-23T01:46:29;1.70;;;1.00;;
29214;SDS011;16252;49.816;7.964;2023-03-23T01:48:56;1.30;;;0.80;;
29214;SDS011;16252;49.816;7.964;2023-03-23T01:51:30;2.35;;;0.85;;
29214;SDS011;16252;49.816;7.964;2023-03-23T01:53:57;1.20;;;0.70;;
29214;SDS011;16252;49.816;7.964;2023-03-23T01:56:28;0.65;;;0.60;;
29214;SDS011;16252;49.816;7.964;2023-03-23T01:59:02;1.35;;;0.60;;
29214;SDS011;16252;49.816;7.964;2023-03-23T02:01:28;1.70;;;0.88;;
29214;SDS011;16252;49.816;7.964;2023-03-23T02:03:54;0.88;;;0.70;;
29214;SDS011;16252;49.816;7.964;2023-03-23T02:06:21;0.95;;;0.82;;
29214;SDS011;16252;49.816;7.964;2023-03-23T02:08:47;0.93;;;0.70;;
29214;SDS011;16252;49.816;7.964;2023-03-23T02:11:15;2.05;;;0.80;;
29214;SDS011;16252;49.816;7.964;2023-03-23T02:13:42;1.63;;;0.85;;
29214;SDS011;16252;49.816;7.964;2023-03-23T02:16:20;1.08;;;0.90;;
29214;SDS011;16252;49.816;7.964;2023-03-23T02:24:40;1.73;;;1.17;;
29214;SDS011;16252;49.816;7.964;2023-03-23T02:27:25;1.23;;;1.00;;
29214;SDS011;16252;49.816;7.964;2023-03-23T02:35:46;0.98;;;0.82;;
29214;SDS011;16252;49.816;7.964;2023-03-23T02:38:35;1.58;;;0.88;;
29214;SDS011;16252;49.816;7.964;2023-03-23T02:41:06;1.13;;;0.82;;
29214;SDS011;16252;49.816;7.964;2023-03-23T02:43:35;1.00;;;0.90;;
29214;SDS011;16252;49.816;7.964;2023-03-23T02:46:05;1.13;;;0.77;;
29214;SDS011;16252;49.816;7.964;2023-03-23T02:48:33;1.48;;;0.80;;
29214;SDS011;16252;49.816;7.964;2023-03-23T02:51:02;1.38;;;0.95;;
29214;SDS011;16252;49.816;7.964;2023-03-23T02:53:29;1.45;;;0.80;;
29214;SDS011;16252;49.816;7.964;2023-03-23T02:55:57;0.90;;;0.77;;
29214;SDS011;16252;49.816;7.964;2023-03-23T02:58:24;2.65;;;0.90;;
29214;SDS011;16252;49.816;7.964;2023-03-23T03:00:50;0.95;;;0.90;;
29214;SDS011;16252;49.816;7.964;2023-03-23T03:03:16;0.70;;;0.70;;
29214;SDS011;16252;49.816;7.964;2023-03-23T03:08:35;0.70;;;0.70;;
29214;SDS011;16252;49.816;7.964;2023-03-23T03:11:12;0.85;;;0.80;;
29214;SDS011;16252;49.816;7.964;2023-03-23T03:13:49;1.00;;;0.90;;
29214;SDS011;16252;49.816;7.964;2023-03-23T03:16:40;1.10;;;0.80;;
29214;SDS011;16252;49.816;7.964;2023-03-23T03:19:20;1.27;;;0.90;;
29214;SDS011;16252;49.816;7.964;2023-03-23T03:21:54;1.20;;;0.88;;
29214;SDS011;16252;49.816;7.964;2023-03-23T03:24:22;1.45;;;0.80;;
29214;SDS011;16252;49.816;7.964;2023-03-23T03:26:51;1.08;;;0.98;;
29214;SDS011;16252;49.816;7.964;2023-03-23T03:29:23;1.08;;;0.90;;
29214;SDS011;16252;49.816;7.964;2023-03-23T03:31:54;1.20;;;1.00;;
29214;SDS011;16252;49.816;7.964;2023-03-23T03:34:21;1.73;;;0.88;;
29214;SDS011;16252;49.816;7.964;2023-03-23T03:36:49;1.17;;;0.90;;
29214;SDS011;16252;49.816;7.964;2023-03-23T03:39:17;1.60;;;0.90;;
29214;SDS011;16252;49.816;7.964;2023-03-23T03:41:44;1.38;;;0.82;;
29214;SDS011;16252;49.816;7.964;2023-03-23T03:44:10;1.52;;;1.02;;
29214;SDS011;16252;49.816;7.964;2023-03-23T03:46:36;2.05;;;0.80;;
29214;SDS011;16252;49.816;7.964;2023-03-23T03:49:03;1.33;;;0.95;;
29214;SDS011;16252;49.816;7.964;2023-03-23T03:51:30;1.08;;;0.98;;
29214;SDS011;16252;49.816;7.964;2023-03-23T03:53:56;1.25;;;0.95;;
29214;SDS011;16252;49.816;7.964;2023-03-23T03:56:22;1.40;;;0.90;;
29214;SDS011;16252;49.816;7.964;2023-03-23T03:58:48;1.42;;;1.00;;
29214;SDS011;16252;49.816;7.964;2023-03-23T04:01:14;1.13;;;0.88;;
29214;SDS011;16252;49.816;7.964;2023-03-23T04:03:41;3.65;;;1.20;;
29214;SDS011;16252;49.816;7.964;2023-03-23T04:06:07;1.42;;;0.85;;
29214;SDS011;16252;49.816;7.964;2023-03-23T04:08:37;1.00;;;0.90;;
29214;SDS011;16252;49.816;7.964;2023-03-23T04:11:04;1.50;;;1.00;;
29214;SDS011;16252;49.816;7.964;2023-03-23T04:13:29;3.28;;;1.00;;
29214;SDS011;16252;49.816;7.964;2023-03-23T04:15:55;1.25;;;1.00;;
29214;SDS011;16252;49.816;7.964;2023-03-23T04:18:20;3.42;;;0.90;;
29214;SDS011;16252;49.816;7.964;2023-03-23T04:20:47;1.95;;;1.02;;
29214;SDS011;16252;49.816;7.964;2023-03-23T04:23:17;2.45;;;1.10;;
29214;SDS011;16252;49.816;7.964;2023-03-23T04:25:47;2.90;;;1.23;;
29214;SDS011;16252;49.816;7.964;2023-03-23T04:28:14;1.60;;;0.80;;
29214;SDS011;16252;49.816;7.964;2023-03-23T04:30:41;1.98;;;1.02;;
29214;SDS011;16252;49.816;7.964;2023-03-23T04:33:08;1.75;;;1.10;;
29214;SDS011;16252;49.816;7.964;2023-03-23T04:35:39;1.48;;;1.08;;
29214;SDS011;16252;49.816;7.964;2023-03-23T04:38:04;1.02;;;0.93;;
29214;SDS011;16252;49.816;7.964;2023-03-23T04:40:30;1.58;;;1.15;;
29214;SDS011;16252;49.816;7.964;2023-03-23T04:42:55;1.55;;;1.27;;
29214;SDS011;16252;49.816;7.964;2023-03-23T04:45:22;1.38;;;1.23;;
29214;SDS011;16252;49.816;7.964;2023-03-23T04:47:49;1.85;;;1.10;;
29214;SDS011;16252;49.816;7.964;2023-03-23T04:50:22;1.23;;;0.98;;
29214;SDS011;16252;49.816;7.964;2023-03-23T04:52:49;2.15;;;1.13;;
29214;SDS011;16252;49.816;7.964;2023-03-23T04:55:16;2.33;;;1.55;;
29214;SDS011;16252;49.816;7.964;2023-03-23T04:57:42;1.52;;;1.20;;
29214;SDS011;16252;49.816;7.964;2023-03-23T05:00:09;1.55;;;1.08;;
29214;SDS011;16252;49.816;7.964;2023-03-23T05:02:39;4.47;;;1.50;;
29214;SDS011;16252;49.816;7.964;2023-03-23T05:05:05;2.67;;;1.20;;
29214;SDS011;16252;49.816;7.964;2023-03-23T05:07:31;1.60;;;1.00;;
29214;SDS011;16252;49.816;7.964;2023-03-23T05:09:57;1.50;;;0.95;;
29214;SDS011;16252;49.816;7.964;2023-03-23T05:12:22;1.98;;;1.10;;
29214;SDS011;16252;49.816;7.964;2023-03-23T05:14:48;1.60;;;1.23;;
29214;SDS011;16252;49.816;7.964;2023-03-23T05:17:13;2.47;;;1.10;;
29214;SDS011;16252;49.816;7.964;2023-03-23T05:19:41;2.85;;;1.35;;
29214;SDS011;16252;49.816;7.964;2023-03-23T05:22:08;1.95;;;1.40;;
29214;SDS011;16252;49.816;7.964;2023-03-23T05:24:34;2.60;;;1.23;;
29214;SDS011;16252;49.816;7.964;2023-03-23T05:26:59;1.33;;;1.20;;
29214;SDS011;16252;49.816;7.964;2023-03-23T05:29:25;1.63;;;1.20;;
29214;SDS011;16252;49.816;7.964;2023-03-23T05:31:51;1.20;;;1.10;;
29214;SDS011;16252;49.816;7.964;2023-03-23T05:34:18;3.47;;;1.17;;
29214;SDS011;16252;49.816;7.964;2023-03-23T05:36:44;3.38;;;1.60;;
29214;SDS011;16252;49.816;7.964;2023-03-23T05:39:10;0.93;;;0.93;;
29214;SDS011;16252;49.816;7.964;2023-03-23T05:44:04;2.80;;;1.20;;
29214;SDS011;16252;49.816;7.964;2023-03-23T05:46:30;2.45;;;1.50;;
29214;SDS011;16252;49.816;7.964;2023-03-23T05:48:55;3.05;;;1.60;;
29214;SDS011;16252;49.816;7.964;2023-03-23T05:51:21;2.60;;;1.52;;
29214;SDS011;16252;49.816;7.964;2023-03-23T05:53:46;2.30;;;1.73;;
29214;SDS011;16252;49.816;7.964;2023-03-23T05:56:12;2.28;;;1.33;;
29214;SDS011;16252;49.816;7.964;2023-03-23T05:58:37;2.17;;;1.30;;
29214;SDS011;16252;49.816;7.964;2023-03-23T06:01:06;2.38;;;1.52;;
29214;SDS011;16252;49.816;7.964;2023-03-23T06:03:32;2.80;;;1.83;;
29214;SDS011;16252;49.816;7.964;2023-03-23T06:05:57;3.53;;;1.90;;
29214;SDS011;16252;49.816;7.964;2023-03-23T06:08:23;2.13;;;1.40;;
29214;SDS011;16252;49.816;7.964;2023-03-23T06:10:49;1.88;;;1.50;;
29214;SDS011;16252;49.816;7.964;2023-03-23T06:13:14;2.58;;;1.70;;
29214;SDS011;16252;49.816;7.964;2023-03-23T06:15:39;2.22;;;1.50;;
29214;SDS011;16252;49.816;7.964;2023-03-23T06:18:05;1.90;;;1.60;;
29214;SDS011;16252;49.816;7.964;2023-03-23T06:20:31;2.33;;;1.42;;
29214;SDS011;16252;49.816;7.964;2023-03-23T06:22:57;1.77;;;1.42;;
29214;SDS011;16252;49.816;7.964;2023-03-23T06:25:23;3.55;;;1.70;;
29214;SDS011;16252;49.816;7.964;2023-03-23T06:27:49;3.47;;;1.92;;
29214;SDS011;16252;49.816;7.964;2023-03-23T06:30:14;2.90;;;1.75;;
29214;SDS011;16252;49.816;7.964;2023-03-23T06:32:40;3.17;;;1.70;;
29214;SDS011;16252;49.816;7.964;2023-03-23T06:35:06;3.17;;;2.17;;
29214;SDS011;16252;49.816;7.964;2023-03-23T06:37:35;2.60;;;1.83;;
29214;SDS011;16252;49.816;7.964;2023-03-23T06:40:01;3.05;;;2.00;;
29214;SDS011;16252;49.816;7.964;2023-03-23T06:42:29;2.58;;;1.55;;
29214;SDS011;16252;49.816;7.964;2023-03-23T06:44:54;2.55;;;1.60;;
29214;SDS011;16252;49.816;7.964;2023-03-23T06:47:22;2.53;;;1.50;;
29214;SDS011;16252;49.816;7.964;2023-03-23T06:49:48;2.70;;;1.40;;
29214;SDS011;16252;49.816;7.964;2023-03-23T06:52:13;2.00;;;1.50;;
29214;SDS011;16252;49.816;7.964;2023-03-23T06:54:38;1.75;;;1.20;;
29214;SDS011;16252;49.816;7.964;2023-03-23T06:57:04;1.95;;;1.40;;
29214;SDS011;16252;49.816;7.964;2023-03-23T06:59:29;2.40;;;1.40;;
29214;SDS011;16252;49.816;7.964;2023-03-23T07:01:55;2.50;;;1.50;;
29214;SDS011;16252;49.816;7.964;2023-03-23T07:04:21;2.35;;;1.50;;
29214;SDS011;16252;49.816;7.964;2023-03-23T07:06:48;2.10;;;1.50;;
29214;SDS011;16252;49.816;7.964;2023-03-23T07:09:13;2.95;;;1.55;;
29214;SDS011;16252;49.816;7.964;2023-03-23T07:11:39;3.47;;;1.90;;
29214;SDS011;16252;49.816;7.964;2023-03-23T07:14:04;2.58;;;1.75;;
29214;SDS011;16252;49.816;7.964;2023-03-23T07:16:29;2.15;;;1.33;;
29214;SDS011;16252;49.816;7.964;2023-03-23T07:18:56;2.17;;;1.65;;
29214;SDS011;16252;49.816;7.964;2023-03-23T07:21:21;1.42;;;1.30;;
29214;SDS011;16252;49.816;7.964;2023-03-23T07:23:46;3.03;;;1.38;;
29214;SDS011;16252;49.816;7.964;2023-03-23T07:26:12;2.63;;;1.40;;
29214;SDS011;16252;49.816;7.964;2023-03-23T07:28:38;1.65;;;1.40;;
29214;SDS011;16252;49.816;7.964;2023-03-23T07:31:04;1.88;;;1.50;;
29214;SDS011;16252;49.816;7.964;2023-03-23T07:33:30;2.08;;;1.35;;
29214;SDS011;16252;49.816;7.964;2023-03-23T07:35:58;1.88;;;1.20;;
29214;SDS011;16252;49.816;7.964;2023-03-23T07:38:24;2.53;;;1.30;;
29214;SDS011;16252;49.816;7.964;2023-03-23T07:40:52;3.30;;;1.35;;
29214;SDS011;16252;49.816;7.964;2023-03-23T07:43:17;1.67;;;1.35;;
29214;SDS011;16252;49.816;7.964;2023-03-23T07:45:44;2.25;;;1.35;;
29214;SDS011;16252;49.816;7.964;2023-03-23T07:48:10;3.60;;;2.00;;
29214;SDS011;16252;49.816;7.964;2023-03-23T07:50:35;2.90;;;2.05;;
29214;SDS011;16252;49.816;7.964;2023-03-23T07:53:02;2.92;;;1.85;;
29214;SDS011;16252;49.816;7.964;2023-03-23T07:55:27;2.13;;;1.55;;
29214;SDS011;16252;49.816;7.964;2023-03-23T07:57:53;2.63;;;1.85;;
29214;SDS011;16252;49.816;7.964;2023-03-23T08:00:19;2.00;;;1.70;;
29214;SDS011;16252;49.816;7.964;2023-03-23T08:02:48;2.00;;;1.48;;
29214;SDS011;16252;49.816;7.964;2023-03-23T08:05:16;3.85;;;1.30;;
29214;SDS011;16252;49.816;7.964;2023-03-23T08:07:42;3.42;;;1.70;;
29214;SDS011;16252;49.816;7.964;2023-03-23T08:10:08;2.45;;;1.70;;
29214;SDS011;16252;49.816;7.964;2023-03-23T08:12:35;3.17;;;2.00;;
29214;SDS011;16252;49.816;7.964;2023-03-23T08:15:01;2.75;;;1.60;;
29214;SDS011;16252;49.816;7.964;2023-03-23T08:17:27;2.63;;;1.70;;
29214;SDS011;16252;49.816;7.964;2023-03-23T08:19:53;3.25;;;1.67;;
29214;SDS011;16252;49.816;7.964;2023-03-23T08:22:18;2.67;;;1.63;;
29214;SDS011;16252;49.816;7.964;2023-03-23T08:24:44;2.88;;;1.70;;
29214;SDS011;16252;49.816;7.964;2023-03-23T08:27:09;3.65;;;1.80;;
29214;SDS011;16252;49.816;7.964;2023-03-23T08:29:34;2.85;;;1.77;;
29214;SDS011;16252;49.816;7.964;2023-03-23T08:32:00;2.80;;;1.73;;
29214;SDS011;16252;49.816;7.964;2023-03-23T08:34:28;1.35;;;1.25;;
29214;SDS011;16252;49.816;7.964;2023-03-23T08:36:53;2.88;;;1.60;;
29214;SDS011;16252;49.816;7.964;2023-03-23T08:39:20;1.70;;;1.33;;
29214;SDS011;16252;49.816;7.964;2023-03-23T08:41:47;1.90;;;1.10;;
29214;SDS011;16252;49.816;7.964;2023-03-23T08:44:13;1.92;;;1.20;;
29214;SDS011;16252;49.816;7.964;2023-03-23T08:46:38;1.60;;;1.20;;
29214;SDS011;16252;49.816;7.964;2023-03-23T08:49:04;1.88;;;1.25;;
29214;SDS011;16252;49.816;7.964;2023-03-23T08:51:30;1.20;;;1.02;;
29214;SDS011;16252;49.816;7.964;2023-03-23T08:53:56;1.20;;;1.08;;
29214;SDS011;16252;49.816;7.964;2023-03-23T08:56:21;1.77;;;1.13;;
29214;SDS011;16252;49.816;7.964;2023-03-23T08:58:47;1.23;;;1.10;;
29214;SDS011;16252;49.816;7.964;2023-03-23T09:01:13;2.35;;;1.35;;
29214;SDS011;16252;49.816;7.964;2023-03-23T09:03:39;2.90;;;1.67;;
29214;SDS011;16252;49.816;7.964;2023-03-23T09:06:06;1.63;;;1.10;;
29214;SDS011;16252;49.816;7.964;2023-03-23T09:08:33;1.52;;;1.30;;
29214;SDS011;16252;49.816;7.964;2023-03-23T09:11:07;3.03;;;1.35;;
29214;SDS011;16252;49.816;7.964;2023-03-23T09:13:34;1.80;;;1.20;;
29214;SDS011;16252;49.816;7.964;2023-03-23T09:16:01;1.80;;;1.40;;
29214;SDS011;16252;49.816;7.964;2023-03-23T09:18:28;1.73;;;1.05;;
29214;SDS011;16252;49.816;7.964;2023-03-23T09:20:53;1.00;;;0.82;;
29214;SDS011;16252;49.816;7.964;2023-03-23T09:23:19;1.00;;;0.90;;
29214;SDS011;16252;49.816;7.964;2023-03-23T09:25:45;1.33;;;0.90;;
29214;SDS011;16252;49.816;7.964;2023-03-23T09:28:12;1.13;;;0.85;;
29214;SDS011;16252;49.816;7.964;2023-03-23T09:30:38;2.28;;;1.00;;
29214;SDS011;16252;49.816;7.964;2023-03-23T09:33:05;1.17;;;1.08;;
29214;SDS011;16252;49.816;7.964;2023-03-23T09:35:31;1.15;;;0.90;;
29214;SDS011;16252;49.816;7.964;2023-03-23T09:40:32;1.33;;;1.00;;
29214;SDS011;16252;49.816;7.964;2023-03-23T09:49:04;3.60;;;2.30;;
29214;SDS011;16252;49.816;7.964;2023-03-23T09:51:43;2.78;;;1.50;;
29214;SDS011;16252;49.816;7.964;2023-03-23T09:54:24;1.52;;;1.20;;
29214;SDS011;16252;49.816;7.964;2023-03-23T09:56:52;1.17;;;0.75;;
29214;SDS011;16252;49.816;7.964;2023-03-23T09:59:20;1.40;;;1.00;;
29214;SDS011;16252;49.816;7.964;2023-03-23T10:01:48;1.77;;;1.08;;
29214;SDS011;16252;49.816;7.964;2023-03-23T10:07:17;1.30;;;0.70;;
29214;SDS011;16252;49.816;7.964;2023-03-23T10:09:45;1.98;;;0.95;;
29214;SDS011;16252;49.816;7.964;2023-03-23T10:12:19;0.90;;;0.80;;
29214;SDS011;16252;49.816;7.964;2023-03-23T10:17:33;0.70;;;0.60;;
29214;SDS011;16252;49.816;7.964;2023-03-23T10:22:53;0.70;;;0.60;;
29214;SDS011;16252;49.816;7.964;2023-03-23T10:25:28;1.30;;;1.02;;
29214;SDS011;16252;49.816;7.964;2023-03-23T10:27:59;1.60;;;0.90;;
29214;SDS011;16252;49.816;7.964;2023-03-23T10:33:17;1.05;;;0.77;;
29214;SDS011;16252;49.816;7.964;2023-03-23T10:35:53;1.15;;;0.95;;
29214;SDS011;16252;49.816;7.964;2023-03-23T10:38:22;1.45;;;1.30;;
29214;SDS011;16252;49.816;7.964;2023-03-23T10:40:54;1.10;;;0.80;;
29214;SDS011;16252;49.816;7.964;2023-03-23T10:43:24;3.30;;;2.05;;
29214;SDS011;16252;49.816;7.964;2023-03-23T10:45:53;3.30;;;1.75;;
29214;SDS011;16252;49.816;7.964;2023-03-23T10:48:29;1.67;;;1.10;;
29214;SDS011;16252;49.816;7.964;2023-03-23T10:50:58;2.05;;;1.40;;
29214;SDS011;16252;49.816;7.964;2023-03-23T10:53:38;1.48;;;1.00;;
29214;SDS011;16252;49.816;7.964;2023-03-23T10:56:19;0.75;;;0.70;;
29214;SDS011;16252;49.816;7.964;2023-03-23T10:59:14;1.45;;;1.15;;
29214;SDS011;16252;49.816;7.964;2023-03-23T11:01:49;1.40;;;0.80;;
29214;SDS011;16252;49.816;7.964;2023-03-23T11:04:17;1.65;;;0.95;;
29214;SDS011;16252;49.816;7.964;2023-03-23T11:06:48;1.55;;;0.80;;
29214;SDS011;16252;49.816;7.964;2023-03-23T11:09:18;1.13;;;0.75;;
29214;SDS011;16252;49.816;7.964;2023-03-23T11:11:50;0.98;;;0.80;;
29214;SDS011;16252;49.816;7.964;2023-03-23T11:14:18;1.40;;;0.85;;
29214;SDS011;16252;49.816;7.964;2023-03-23T11:16:53;1.65;;;0.80;;
29214;SDS011;16252;49.816;7.964;2023-03-23T11:21:54;0.85;;;0.80;;
29214;SDS011;16252;49.816;7.964;2023-03-23T11:24:27;0.95;;;0.82;;
29214;SDS011;16252;49.816;7.964;2023-03-23T11:26:53;0.85;;;0.80;;
29214;SDS011;16252;49.816;7.964;2023-03-23T11:29:23;2.22;;;0.90;;
29214;SDS011;16252;49.816;7.964;2023-03-23T11:34:30;0.90;;;0.80;;
29214;SDS011;16252;49.816;7.964;2023-03-23T11:37:01;1.48;;;0.85;;
29214;SDS011;16252;49.816;7.964;2023-03-23T11:39:31;0.85;;;0.80;;
29214;SDS011;16252;49.816;7.964;2023-03-23T11:42:00;0.85;;;0.70;;
29214;SDS011;16252;49.816;7.964;2023-03-23T11:44:34;1.23;;;0.90;;
29214;SDS011;16252;49.816;7.964;2023-03-23T11:47:23;2.63;;;1.42;;
29214;SDS011;16252;49.816;7.964;2023-03-23T11:50:16;3.08;;;1.70;;
29214;SDS011;16252;49.816;7.964;2023-03-23T11:53:02;1.80;;;1.20;;
29214;SDS011;16252;49.816;7.964;2023-03-23T11:58:13;1.65;;;1.20;;
29214;SDS011;16252;49.816;7.964;2023-03-23T12:00:45;1.75;;;1.40;;
29214;SDS011;16252;49.816;7.964;2023-03-23T12:06:21;1.77;;;1.05;;
29214;SDS011;16252;49.816;7.964;2023-03-23T12:09:07;4.75;;;1.38;;
29214;SDS011;16252;49.816;7.964;2023-03-23T12:11:58;1.25;;;1.10;;
29214;SDS011;16252;49.816;7.964;2023-03-23T12:14:44;1.65;;;1.05;;
29214;SDS011;16252;49.816;7.964;2023-03-23T12:22:39;4.53;;;2.20;;
29214;SDS011;16252;49.816;7.964;2023-03-23T12:28:22;2.63;;;1.73;;
29214;SDS011;16252;49.816;7.964;2023-03-23T12:39:33;1.70;;;1.45;;
29214;SDS011;16252;49.816;7.964;2023-03-23T12:44:59;1.42;;;1.17;;
29214;SDS011;16252;49.816;7.964;2023-03-23T12:47:46;1.55;;;1.10;;
29214;SDS011;16252;49.816;7.964;2023-03-23T12:52:45;1.40;;;1.00;;
29214;SDS011;16252;49.816;7.964;2023-03-23T12:55:16;0.95;;;0.90;;
29214;SDS011;16252;49.816;7.964;2023-03-23T13:00:26;1.00;;;0.90;;
29214;SDS011;16252;49.816;7.964;2023-03-23T13:02:57;1.27;;;0.80;;
29214;SDS011;16252;49.816;7.964;2023-03-23T13:05:47;1.48;;;1.00;;
29214;SDS011;16252;49.816;7.964;2023-03-23T13:08:24;2.72;;;1.10;;
29214;SDS011;16252;49.816;7.964;2023-03-23T13:10:54;1.58;;;1.00;;
29214;SDS011;16252;49.816;7.964;2023-03-23T13:13:24;1.98;;;1.05;;
29214;SDS011;16252;49.816;7.964;2023-03-23T13:23:43;2.22;;;1.48;;
29214;SDS011;16252;49.816;7.964;2023-03-23T13:26:13;1.63;;;1.38;;
29214;SDS011;16252;49.816;7.964;2023-03-23T13:31:23;2.63;;;1.60;;
29214;SDS011;16252;49.816;7.964;2023-03-23T13:37:00;3.10;;;1.80;;
29214;SDS011;16252;49.816;7.964;2023-03-23T13:39:30;2.55;;;1.58;;
29214;SDS011;16252;49.816;7.964;2023-03-23T13:45:08;1.90;;;1.45;;
29214;SDS011;16252;49.816;7.964;2023-03-23T13:47:44;1.67;;;1.10;;
29214;SDS011;16252;49.816;7.964;2023-03-23T13:50:23;2.30;;;1.08;;
29214;SDS011;16252;49.816;7.964;2023-03-23T13:52:53;1.70;;;0.98;;
29214;SDS011;16252;49.816;7.964;2023-03-23T13:55:31;1.88;;;1.02;;
29214;SDS011;16252;49.816;7.964;2023-03-23T14:08:21;1.63;;;1.10;;
29214;SDS011;16252;49.816;7.964;2023-03-23T14:10:57;2.05;;;1.02;;
29214;SDS011;16252;49.816;7.964;2023-03-23T14:16:04;1.38;;;1.00;;
29214;SDS011;16252;49.816;7.964;2023-03-23T14:18:39;1.63;;;0.90;;
29214;SDS011;16252;49.816;7.964;2023-03-23T14:21:06;0.70;;;0.70;;
29214;SDS011;16252;49.816;7.964;2023-03-23T14:23:40;0.90;;;0.80;;
29214;SDS011;16252;49.816;7.964;2023-03-23T14:26:16;1.42;;;1.02;;
29214;SDS011;16252;49.816;7.964;2023-03-23T14:28:45;0.90;;;0.90;;
29214;SDS011;16252;49.816;7.964;2023-03-23T14:33:48;1.20;;;0.90;;
29214;SDS011;16252;49.816;7.964;2023-03-23T14:36:35;2.42;;;1.17;;
29214;SDS011;16252;49.816;7.964;2023-03-23T14:39:02;2.88;;;1.50;;
29214;SDS011;16252;49.816;7.964;2023-03-23T14:41:32;1.73;;;1.40;;
29214;SDS011;16252;49.816;7.964;2023-03-23T14:44:00;2.70;;;1.55;;
29214;SDS011;16252;49.816;7.964;2023-03-23T14:46:27;1.92;;;1.27;;
29214;SDS011;16252;49.816;7.964;2023-03-23T14:48:52;1.90;;;1.35;;
29214;SDS011;16252;49.816;7.964;2023-03-23T14:51:18;1.63;;;1.30;;
29214;SDS011;16252;49.816;7.964;2023-03-23T14:53:45;1.10;;;1.00;;
29214;SDS011;16252;49.816;7.964;2023-03-23T14:56:16;1.30;;;1.10;;
29214;SDS011;16252;49.816;7.964;2023-03-23T14:58:44;2.17;;;0.75;;
29214;SDS011;16252;49.816;7.964;2023-03-23T15:01:11;1.25;;;0.90;;
29214;SDS011;16252;49.816;7.964;2023-03-23T15:06:35;1.60;;;0.82;;
29214;SDS011;16252;49.816;7.964;2023-03-23T15:09:02;3.42;;;1.40;;
29214;SDS011;16252;49.816;7.964;2023-03-23T15:11:32;2.15;;;1.30;;
29214;SDS011;16252;49.816;7.964;2023-03-23T15:14:02;1.73;;;1.23;;
29214;SDS011;16252;49.816;7.964;2023-03-23T15:16:35;2.70;;;1.60;;
29214;SDS011;16252;49.816;7.964;2023-03-23T15:19:05;2.15;;;1.52;;
29214;SDS011;16252;49.816;7.964;2023-03-23T15:21:46;2.92;;;1.88;;
29214;SDS011;16252;49.816;7.964;2023-03-23T15:24:20;2.42;;;1.50;;
29214;SDS011;16252;49.816;7.964;2023-03-23T15:27:23;2.78;;;1.70;;
29214;SDS011;16252;49.816;7.964;2023-03-23T15:29:56;1.75;;;1.23;;
29214;SDS011;16252;49.816;7.964;2023-03-23T15:34:56;1.98;;;1.50;;
29214;SDS011;16252;49.816;7.964;2023-03-23T15:39:56;1.15;;;1.05;;
29214;SDS011;16252;49.816;7.964;2023-03-23T15:42:24;2.50;;;1.20;;
29214;SDS011;16252;49.816;7.964;2023-03-23T15:47:36;1.15;;;0.93;;
29214;SDS011;16252;49.816;7.964;2023-03-23T15:50:03;1.42;;;0.80;;
29214;SDS011;16252;49.816;7.964;2023-03-23T15:52:34;1.77;;;1.05;;
29214;SDS011;16252;49.816;7.964;2023-03-23T15:54:59;0.90;;;0.90;;
29214;SDS011;16252;49.816;7.964;2023-03-23T15:57:25;1.55;;;0.90;;
29214;SDS011;16252;49.816;7.964;2023-03-23T15:59:50;2.63;;;0.90;;
29214;SDS011;16252;49.816;7.964;2023-03-23T16:02:17;1.45;;;0.80;;
29214;SDS011;16252;49.816;7.964;2023-03-23T16:04:46;1.02;;;0.75;;
29214;SDS011;16252;49.816;7.964;2023-03-23T16:07:12;0.95;;;0.88;;
29214;SDS011;16252;49.816;7.964;2023-03-23T16:09:38;1.02;;;0.85;;
29214;SDS011;16252;49.816;7.964;2023-03-23T16:12:09;1.30;;;0.98;;
29214;SDS011;16252;49.816;7.964;2023-03-23T16:14:36;1.80;;;1.40;;
29214;SDS011;16252;49.816;7.964;2023-03-23T16:17:02;6.05;;;3.17;;
29214;SDS011;16252;49.816;7.964;2023-03-23T16:19:27;3.97;;;1.85;;
29214;SDS011;16252;49.816;7.964;2023-03-23T16:21:53;3.97;;;1.65;;
29214;SDS011;16252;49.816;7.964;2023-03-23T16:24:18;1.58;;;1.05;;
29214;SDS011;16252;49.816;7.964;2023-03-23T16:26:43;1.95;;;1.48;;
29214;SDS011;16252;49.816;7.964;2023-03-23T16:29:10;1.50;;;1.02;;
29214;SDS011;16252;49.816;7.964;2023-03-23T16:31:37;1.20;;;1.00;;
29214;SDS011;16252;49.816;7.964;2023-03-23T16:34:02;1.10;;;0.90;;
29214;SDS011;16252;49.816;7.964;2023-03-23T16:36:27;1.40;;;1.00;;
29214;SDS011;16252;49.816;7.964;2023-03-23T16:38:53;3.33;;;1.30;;
29214;SDS011;16252;49.816;7.964;2023-03-23T16:41:18;4.85;;;1.67;;
29214;SDS011;16252;49.816;7.964;2023-03-23T16:43:43;2.03;;;1.70;;
29214;SDS011;16252;49.816;7.964;2023-03-23T16:46:09;3.17;;;1.55;;
29214;SDS011;16252;49.816;7.964;2023-03-23T16:48:36;2.65;;;1.45;;
29214;SDS011;16252;49.816;7.964;2023-03-23T16:51:02;4.20;;;2.08;;
29214;SDS011;16252;49.816;7.964;2023-03-23T16:53:27;3.90;;;1.70;;